sensor_id;sensor_type;location;lat;lon;timestamp;pressure;altitude;pressure_sealevel;temperature;humidity
15444;BME280;7822;48.146;11.576;2023-03-07T00:58:21;93919.75;;;14.10;57.78
15444;BME280;7822;48.146;11.576;2023-03-07T01:01:18;93905.91;;;14.10;57.90
15444;BME280;7822;48.146;11.576;2023-03-07T01:03:47;93910.34;;;14.09;57.97
15444;BME280;7822;48.146;11.576;2023-03-07T01:06:17;93911.13;;;14.10;57.92
15444;BME280;7822;48.146;11.576;2023-03-07T01:08:45;93914.72;;;14.09;57.79
15444;BME280;7822;48.146;11.576;2023-03-07T01:11:13;93908.69;;;14.08;58.17
15444;BME280;7822;48.146;11.576;2023-03-07T01:13:42;93914.72;;;14.09;58.01
15444;BME280;7822;48.146;11.576;2023-03-07T01:16:11;93908.50;;;14.10;57.55
15444;BME280;7822;48.146;11.576;2023-03-07T01:18:40;93911.94;;;14.10;57.70
15444;BME280;7822;48.146;11.576;2023-03-07T01:21:12;93911.94;;;14.10;58.04
15444;BME280;7822;48.146;11.576;2023-03-07T01:26:11;93901.50;;;14.10;57.74
15444;BME280;7822;48.146;11.576;2023-03-07T01:28:38;93895.47;;;14.10;57.83
15444;BME280;7822;48.146;11.576;2023-03-07T01:31:08;93892.06;;;14.09;57.88
15444;BME280;7822;48.146;11.576;2023-03-07T01:33:35;93894.69;;;14.09;57.92
15444;BME280;7822;48.146;11.576;2023-03-07T01:36:03;93888.66;;;14.09;58.05
15444;BME280;7822;48.146;11.576;2023-03-07T01:38:31;93893.06;;;14.08;58.17
15444;BME280;7822;48.146;11.576;2023-03-07T01:41:00;93885.22;;;14.08;58.20
15444;BME280;7822;48.146;11.576;2023-03-07T01:43:30;93890.44;;;14.08;58.16
15444;BME280;7822;48.146;11.576;2023-03-07T01:46:25;93889.63;;;14.08;58.17
15444;BME280;7822;48.146;11.576;2023-03-07T01:48:59;93897.44;;;14.08;58.11
15444;BME280;7822;48.146;11.576;2023-03-07T01:51:30;93886.22;;;14.07;58.28
15444;BME280;7822;48.146;11.576;2023-03-07T01:54:00;93875.81;;;14.07;58.41
15444;BME280;7822;48.146;11.576;2023-03-07T01:56:28;93871.56;;;14.06;58.47
15444;BME280;7822;48.146;11.576;2023-03-07T01:58:56;93881.03;;;14.07;58.28
15444;BME280;7822;48.146;11.576;2023-03-07T02:01:26;93880.19;;;14.07;58.47
15444;BME280;7822;48.146;11.576;2023-03-07T02:03:57;93875.97;;;14.06;58.20
15444;BME280;7822;48.146;11.576;2023-03-07T02:06:29;93866.34;;;14.06;58.51
15444;BME280;7822;48.146;11.576;2023-03-07T02:08:58;93862.09;;;14.05;58.48
15444;BME280;7822;48.146;11.576;2023-03-07T02:11:26;93857.69;;;14.06;58.29
15444;BME280;7822;48.146;11.576;2023-03-07T02:13:54;93859.50;;;14.05;58.68
15444;BME280;7822;48.146;11.576;2023-03-07T02:16:22;93857.88;;;14.04;58.13
15444;BME280;7822;48.146;11.576;2023-03-07T02:18:51;93858.53;;;14.06;58.20
15444;BME280;7822;48.146;11.576;2023-03-07T02:21:27;93858.72;;;14.05;58.29
15444;BME280;7822;48.146;11.576;2023-03-07T02:24:01;93860.50;;;14.04;58.51
15444;BME280;7822;48.146;11.576;2023-03-07T02:26:41;93861.31;;;14.05;58.46
15444;BME280;7822;48.146;11.576;2023-03-07T02:29:10;93857.88;;;14.04;58.32
15444;BME280;7822;48.146;11.576;2023-03-07T02:31:38;93861.31;;;14.05;58.55
15444;BME280;7822;48.146;11.576;2023-03-07T02:34:17;93864.06;;;14.03;58.19
15444;BME280;7822;48.146;11.576;2023-03-07T02:36:47;93858.06;;;14.03;58.52
15444;BME280;7822;48.146;11.576;2023-03-07T02:39:17;93856.25;;;14.03;58.20
15444;BME280;7822;48.146;11.576;2023-03-07T02:41:49;93861.31;;;14.05;58.42
15444;BME280;7822;48.146;11.576;2023-03-07T02:44:18;93864.91;;;14.04;58.53
15444;BME280;7822;48.146;11.576;2023-03-07T02:46:46;93858.88;;;14.03;58.32
15444;BME280;7822;48.146;11.576;2023-03-07T02:49:13;93863.28;;;14.03;58.05
15444;BME280;7822;48.146;11.576;2023-03-07T02:51:41;93860.69;;;14.03;58.22
15444;BME280;7822;48.146;11.576;2023-03-07T02:54:09;93859.88;;;14.02;58.35
15444;BME280;7822;48.146;11.576;2023-03-07T02:56:37;93860.69;;;14.03;58.31
15444;BME280;7822;48.146;11.576;2023-03-07T02:59:06;93865.91;;;14.03;58.42
15444;BME280;7822;48.146;11.576;2023-03-07T03:01:33;93860.69;;;14.03;58.50
15444;BME280;7822;48.146;11.576;2023-03-07T03:04:01;93864.06;;;14.03;58.51
15444;BME280;7822;48.146;11.576;2023-03-07T03:06:29;93856.44;;;14.02;58.43
15444;BME280;7822;48.146;11.576;2023-03-07T03:08:56;93856.25;;;14.03;58.22
15444;BME280;7822;48.146;11.576;2023-03-07T03:11:24;93856.44;;;14.02;58.45
15444;BME280;7822;48.146;11.576;2023-03-07T03:13:51;93853.66;;;14.03;58.65
15444;BME280;7822;48.146;11.576;2023-03-07T03:16:20;93855.47;;;14.03;58.07
15444;BME280;7822;48.146;11.576;2023-03-07T03:18:48;93849.25;;;14.04;58.49
15444;BME280;7822;48.146;11.576;2023-03-07T03:21:16;93850.25;;;14.03;58.40
15444;BME280;7822;48.146;11.576;2023-03-07T03:23:43;93845.66;;;14.05;58.41
15444;BME280;7822;48.146;11.576;2023-03-07T03:26:11;93846.66;;;14.04;58.33
15444;BME280;7822;48.146;11.576;2023-03-07T03:28:39;93848.28;;;14.05;58.43
15444;BME280;7822;48.146;11.576;2023-03-07T03:31:08;93841.25;;;14.05;58.39
15444;BME280;7822;48.146;11.576;2023-03-07T03:33:37;93841.44;;;14.04;58.42
15444;BME280;7822;48.146;11.576;2023-03-07T03:36:07;93840.47;;;14.05;58.16
15444;BME280;7822;48.146;11.576;2023-03-07T03:38:35;93839.63;;;14.04;58.40
15444;BME280;7822;48.146;11.576;2023-03-07T03:41:05;93839.63;;;14.04;58.09
15444;BME280;7822;48.146;11.576;2023-03-07T03:43:34;93836.41;;;14.02;58.42
15444;BME280;7822;48.146;11.576;2023-03-07T03:46:01;93836.22;;;14.04;58.59
15444;BME280;7822;48.146;11.576;2023-03-07T03:48:29;93836.22;;;14.04;58.44
15444;BME280;7822;48.146;11.576;2023-03-07T03:51:03;93837.22;;;14.03;58.30
15444;BME280;7822;48.146;11.576;2023-03-07T03:53:31;93840.63;;;14.03;58.38
15444;BME280;7822;48.146;11.576;2023-03-07T03:56:01;93830.38;;;14.02;58.21
15444;BME280;7822;48.146;11.576;2023-03-07T03:58:29;93832.78;;;14.03;58.54
15444;BME280;7822;48.146;11.576;2023-03-07T04:00:57;93840.63;;;14.03;58.23
15444;BME280;7822;48.146;11.576;2023-03-07T04:03:26;93832.78;;;14.03;58.13
15444;BME280;7822;48.146;11.576;2023-03-07T04:05:59;93832.00;;;14.03;58.35
15444;BME280;7822;48.146;11.576;2023-03-07T04:08:28;93817.34;;;14.02;58.29
15444;BME280;7822;48.146;11.576;2023-03-07T04:10:56;93824.19;;;14.03;58.30
15444;BME280;7822;48.146;11.576;2023-03-07T04:13:24;93819.94;;;14.02;58.41
15444;BME280;7822;48.146;11.576;2023-03-07T04:15:52;93812.13;;;14.02;58.22
15444;BME280;7822;48.146;11.576;2023-03-07T04:18:21;93814.72;;;14.02;58.00
15444;BME280;7822;48.146;11.576;2023-03-07T04:20:50;93819.13;;;14.01;58.61
15444;BME280;7822;48.146;11.576;2023-03-07T04:23:19;93819.94;;;14.02;58.31
15444;BME280;7822;48.146;11.576;2023-03-07T04:25:49;93813.13;;;14.01;58.04
15444;BME280;7822;48.146;11.576;2023-03-07T04:28:17;93810.31;;;14.02;58.17
15444;BME280;7822;48.146;11.576;2023-03-07T04:30:45;93809.50;;;14.02;58.41
15444;BME280;7822;48.146;11.576;2023-03-07T04:33:15;93809.50;;;14.02;58.50
15444;BME280;7822;48.146;11.576;2023-03-07T04:35:43;93807.91;;;14.01;58.49
15444;BME280;7822;48.146;11.576;2023-03-07T04:38:12;93806.91;;;14.02;58.23
15444;BME280;7822;48.146;11.576;2023-03-07T04:40:40;93808.69;;;14.01;58.30
15444;BME280;7822;48.146;11.576;2023-03-07T04:43:09;93804.28;;;14.02;58.43
15444;BME280;7822;48.146;11.576;2023-03-07T04:45:36;93803.31;;;14.03;58.41
15444;BME280;7822;48.146;11.576;2023-03-07T04:48:05;93806.72;;;14.03;58.20
15444;BME280;7822;48.146;11.576;2023-03-07T04:50:32;93810.13;;;14.04;58.30
15444;BME280;7822;48.146;11.576;2023-03-07T04:53:00;93804.09;;;14.03;58.42
15444;BME280;7822;48.146;11.576;2023-03-07T04:55:28;93802.31;;;14.04;58.57
15444;BME280;7822;48.146;11.576;2023-03-07T04:57:55;93801.34;;;14.05;58.66
15444;BME280;7822;48.146;11.576;2023-03-07T05:00:24;93805.75;;;14.04;58.18
15444;BME280;7822;48.146;11.576;2023-03-07T05:02:55;93802.31;;;14.04;58.11
15444;BME280;7822;48.146;11.576;2023-03-07T05:05:23;93808.34;;;14.04;58.40
15444;BME280;7822;48.146;11.576;2023-03-07T05:07:51;93805.56;;;14.06;58.48
15444;BME280;7822;48.146;11.576;2023-03-07T05:10:18;93811.59;;;14.06;58.50
15444;BME280;7822;48.146;11.576;2023-03-07T05:12:46;93818.44;;;14.07;58.40
15444;BME280;7822;48.146;11.576;2023-03-07T05:15:14;93810.63;;;14.07;58.34
15444;BME280;7822;48.146;11.576;2023-03-07T05:17:43;93813.03;;;14.09;58.72
15444;BME280;7822;48.146;11.576;2023-03-07T05:20:10;93813.03;;;14.09;58.45
15444;BME280;7822;48.146;11.576;2023-03-07T05:22:38;93814.00;;;14.08;58.70
15444;BME280;7822;48.146;11.576;2023-03-07T05:25:07;93813.84;;;14.09;58.68
15444;BME280;7822;48.146;11.576;2023-03-07T05:27:34;93808.63;;;14.09;58.72
15444;BME280;7822;48.146;11.576;2023-03-07T05:30:02;93805.03;;;14.10;58.45
15444;BME280;7822;48.146;11.576;2023-03-07T05:32:31;93805.03;;;14.10;58.46
15444;BME280;7822;48.146;11.576;2023-03-07T05:35:00;93804.03;;;14.11;58.53
15444;BME280;7822;48.146;11.576;2023-03-07T05:37:28;93805.84;;;14.11;58.43
15444;BME280;7822;48.146;11.576;2023-03-07T05:39:56;93801.44;;;14.11;58.28
15444;BME280;7822;48.146;11.576;2023-03-07T05:42:24;93807.47;;;14.12;58.51
15444;BME280;7822;48.146;11.576;2023-03-07T05:44:51;93802.25;;;14.12;58.47
15444;BME280;7822;48.146;11.576;2023-03-07T05:47:19;93801.44;;;14.11;58.46
15444;BME280;7822;48.146;11.576;2023-03-07T05:49:47;93800.44;;;14.12;58.31
15444;BME280;7822;48.146;11.576;2023-03-07T05:52:16;93796.22;;;14.11;58.41
15444;BME280;7822;48.146;11.576;2023-03-07T05:54:45;93793.63;;;14.11;58.54
15444;BME280;7822;48.146;11.576;2023-03-07T05:57:16;93796.22;;;14.11;58.47
15444;BME280;7822;48.146;11.576;2023-03-07T05:59:44;93797.03;;;14.12;58.29
15444;BME280;7822;48.146;11.576;2023-03-07T06:02:11;93791.81;;;14.12;58.83
15444;BME280;7822;48.146;11.576;2023-03-07T06:04:39;93796.22;;;14.11;58.58
15444;BME280;7822;48.146;11.576;2023-03-07T06:07:07;93792.81;;;14.11;58.56
15444;BME280;7822;48.146;11.576;2023-03-07T06:09:36;93794.44;;;14.12;58.67
15444;BME280;7822;48.146;11.576;2023-03-07T06:12:03;93795.41;;;14.11;58.67
15444;BME280;7822;48.146;11.576;2023-03-07T06:14:31;93798.00;;;14.11;58.41
15444;BME280;7822;48.146;11.576;2023-03-07T06:16:59;93792.81;;;14.11;58.88
15444;BME280;7822;48.146;11.576;2023-03-07T06:19:27;93797.03;;;14.12;58.74
15444;BME280;7822;48.146;11.576;2023-03-07T06:21:56;93797.03;;;14.12;58.64
15444;BME280;7822;48.146;11.576;2023-03-07T06:24:24;93795.41;;;14.11;58.67
15444;BME280;7822;48.146;11.576;2023-03-07T06:26:53;93798.84;;;14.11;58.65
15444;BME280;7822;48.146;11.576;2023-03-07T06:29:20;93795.41;;;14.11;58.66
15444;BME280;7822;48.146;11.576;2023-03-07T06:31:48;93804.69;;;14.13;58.52
15444;BME280;7822;48.146;11.576;2023-03-07T06:34:16;93797.03;;;14.12;58.68
15444;BME280;7822;48.146;11.576;2023-03-07T06:36:44;93799.66;;;14.12;58.68
15444;BME280;7822;48.146;11.576;2023-03-07T06:39:13;93796.22;;;14.11;59.03
15444;BME280;7822;48.146;11.576;2023-03-07T06:41:42;93794.44;;;14.12;58.82
15444;BME280;7822;48.146;11.576;2023-03-07T06:44:11;93803.03;;;14.12;58.69
15444;BME280;7822;48.146;11.576;2023-03-07T06:46:38;93797.66;;;14.14;58.69
15444;BME280;7822;48.146;11.576;2023-03-07T06:49:06;93792.44;;;14.14;58.61
15444;BME280;7822;48.146;11.576;2023-03-07T06:51:34;93797.66;;;14.14;58.82
15444;BME280;7822;48.146;11.576;2023-03-07T06:54:03;93800.44;;;14.12;58.81
15444;BME280;7822;48.146;11.576;2023-03-07T06:56:31;93800.28;;;14.14;58.65
15444;BME280;7822;48.146;11.576;2023-03-07T06:59:00;93803.84;;;14.13;58.65
15444;BME280;7822;48.146;11.576;2023-03-07T07:01:29;93799.47;;;14.13;58.72
15444;BME280;7822;48.146;11.576;2023-03-07T07:03:57;93801.25;;;14.13;58.91
15444;BME280;7822;48.146;11.576;2023-03-07T07:06:24;93803.03;;;14.12;58.77
15444;BME280;7822;48.146;11.576;2023-03-07T07:08:53;93811.69;;;14.13;58.49
15444;BME280;7822;48.146;11.576;2023-03-07T07:11:22;93808.25;;;14.12;58.72
15444;BME280;7822;48.146;11.576;2023-03-07T07:13:49;93803.22;;;14.11;58.34
15444;BME280;7822;48.146;11.576;2023-03-07T07:16:17;93795.41;;;14.11;58.86
15444;BME280;7822;48.146;11.576;2023-03-07T07:18:49;93800.63;;;14.11;58.80
15444;BME280;7822;48.146;11.576;2023-03-07T07:21:18;93797.19;;;14.10;58.92
15444;BME280;7822;48.146;11.576;2023-03-07T07:23:46;93791.97;;;14.10;58.99
15444;BME280;7822;48.146;11.576;2023-03-07T07:26:13;93784.16;;;14.10;58.90
15444;BME280;7822;48.146;11.576;2023-03-07T07:28:41;93792.16;;;14.09;59.09
15444;BME280;7822;48.146;11.576;2023-03-07T07:31:08;93791.16;;;14.10;58.89
15444;BME280;7822;48.146;11.576;2023-03-07T07:33:36;93782.56;;;14.09;59.00
15444;BME280;7822;48.146;11.576;2023-03-07T07:36:06;93783.34;;;14.10;58.91
15444;BME280;7822;48.146;11.576;2023-03-07T07:38:35;93783.34;;;14.10;58.92
15444;BME280;7822;48.146;11.576;2023-03-07T07:41:03;93776.53;;;14.09;58.77
15444;BME280;7822;48.146;11.576;2023-03-07T07:43:30;93763.50;;;14.09;58.99
15444;BME280;7822;48.146;11.576;2023-03-07T07:45:58;93774.72;;;14.09;58.61
15444;BME280;7822;48.146;11.576;2023-03-07T07:48:29;93773.72;;;14.10;58.98
15444;BME280;7822;48.146;11.576;2023-03-07T07:50:59;93768.69;;;14.09;58.97
15444;BME280;7822;48.146;11.576;2023-03-07T07:53:28;93775.53;;;14.10;58.62
15444;BME280;7822;48.146;11.576;2023-03-07T07:55:56;93772.13;;;14.09;58.73
15444;BME280;7822;48.146;11.576;2023-03-07T07:58:24;93778.13;;;14.10;58.79
15444;BME280;7822;48.146;11.576;2023-03-07T08:00:52;93764.13;;;14.11;58.86
15444;BME280;7822;48.146;11.576;2023-03-07T08:03:19;93767.53;;;14.11;59.00
15444;BME280;7822;48.146;11.576;2023-03-07T08:05:47;93768.50;;;14.10;58.94
15444;BME280;7822;48.146;11.576;2023-03-07T08:08:17;93764.94;;;14.11;58.88
15444;BME280;7822;48.146;11.576;2023-03-07T08:10:47;93765.91;;;14.10;58.70
15444;BME280;7822;48.146;11.576;2023-03-07T08:13:15;93770.16;;;14.11;58.80
15444;BME280;7822;48.146;11.576;2023-03-07T08:15:43;93763.13;;;14.12;58.82
15444;BME280;7822;48.146;11.576;2023-03-07T08:18:11;93762.31;;;14.11;58.93
15444;BME280;7822;48.146;11.576;2023-03-07T08:20:39;93763.94;;;14.12;58.81
15444;BME280;7822;48.146;11.576;2023-03-07T08:23:07;93769.34;;;14.11;58.93
15444;BME280;7822;48.146;11.576;2023-03-07T08:25:35;93759.72;;;14.11;58.93
15444;BME280;7822;48.146;11.576;2023-03-07T08:28:04;93763.94;;;14.12;58.97
15444;BME280;7822;48.146;11.576;2023-03-07T08:30:33;93760.53;;;14.12;59.06
15444;BME280;7822;48.146;11.576;2023-03-07T08:33:02;93762.13;;;14.13;58.91
15444;BME280;7822;48.146;11.576;2023-03-07T08:35:30;93763.94;;;14.12;58.93
15444;BME280;7822;48.146;11.576;2023-03-07T08:37:58;93762.13;;;14.13;58.83
15444;BME280;7822;48.146;11.576;2023-03-07T08:40:27;93760.53;;;14.12;58.88
15444;BME280;7822;48.146;11.576;2023-03-07T08:42:55;93761.31;;;14.12;58.97
15444;BME280;7822;48.146;11.576;2023-03-07T08:45:24;93750.09;;;14.12;58.65
15444;BME280;7822;48.146;11.576;2023-03-07T08:47:52;93751.69;;;14.13;58.87
15444;BME280;7822;48.146;11.576;2023-03-07T08:50:20;93753.50;;;14.12;58.65
15444;BME280;7822;48.146;11.576;2023-03-07T08:52:48;93751.69;;;14.13;58.79
15444;BME280;7822;48.146;11.576;2023-03-07T08:55:16;93754.31;;;14.13;58.77
15444;BME280;7822;48.146;11.576;2023-03-07T08:57:43;93757.94;;;14.12;58.87
15444;BME280;7822;48.146;11.576;2023-03-07T09:00:13;93758.56;;;14.14;59.11
15444;BME280;7822;48.146;11.576;2023-03-07T09:02:45;93756.09;;;14.12;58.98
15444;BME280;7822;48.146;11.576;2023-03-07T09:05:12;93750.88;;;14.12;58.61
15444;BME280;7822;48.146;11.576;2023-03-07T09:07:40;93755.31;;;14.12;58.81
15444;BME280;7822;48.146;11.576;2023-03-07T09:10:09;93750.09;;;14.12;59.11
15444;BME280;7822;48.146;11.576;2023-03-07T09:12:37;93751.06;;;14.11;58.92
15444;BME280;7822;48.146;11.576;2023-03-07T09:15:06;93746.69;;;14.11;58.92
15444;BME280;7822;48.146;11.576;2023-03-07T09:17:34;93750.09;;;14.12;58.64
15444;BME280;7822;48.146;11.576;2023-03-07T09:20:04;93744.06;;;14.11;58.78
15444;BME280;7822;48.146;11.576;2023-03-07T09:22:32;93741.28;;;14.13;58.85
15444;BME280;7822;48.146;11.576;2023-03-07T09:24:59;93743.06;;;14.12;58.78
15444;BME280;7822;48.146;11.576;2023-03-07T09:27:27;93739.66;;;14.12;58.99
15444;BME280;7822;48.146;11.576;2023-03-07T09:29:55;93734.47;;;14.12;58.96
15444;BME280;7822;48.146;11.576;2023-03-07T09:32:22;93740.44;;;14.12;59.01
15444;BME280;7822;48.146;11.576;2023-03-07T09:34:50;93736.06;;;14.13;58.90
15444;BME280;7822;48.146;11.576;2023-03-07T09:37:19;93734.47;;;14.12;58.99
15444;BME280;7822;48.146;11.576;2023-03-07T09:39:47;93718.00;;;14.11;58.99
15444;BME280;7822;48.146;11.576;2023-03-07T09:42:20;93724.81;;;14.12;59.21
15444;BME280;7822;48.146;11.576;2023-03-07T09:45:02;93719.59;;;14.12;58.73
15444;BME280;7822;48.146;11.576;2023-03-07T09:47:56;93724.81;;;14.12;58.93
15444;BME280;7822;48.146;11.576;2023-03-07T09:50:31;93714.38;;;14.12;59.26
15444;BME280;7822;48.146;11.576;2023-03-07T09:53:03;93714.38;;;14.12;59.05
15444;BME280;7822;48.146;11.576;2023-03-07T09:55:31;93709.97;;;14.13;58.89
15444;BME280;7822;48.146;11.576;2023-03-07T09:58:00;93716.00;;;14.13;59.08
15444;BME280;7822;48.146;11.576;2023-03-07T10:00:34;93706.56;;;14.12;59.02
15444;BME280;7822;48.146;11.576;2023-03-07T10:03:11;93709.78;;;14.14;58.94
15444;BME280;7822;48.146;11.576;2023-03-07T10:05:47;93709.00;;;14.14;58.92
15444;BME280;7822;48.146;11.576;2023-03-07T10:08:19;93686.50;;;14.13;58.90
15444;BME280;7822;48.146;11.576;2023-03-07T10:10:53;93686.31;;;14.14;58.98
15444;BME280;7822;48.146;11.576;2023-03-07T10:13:35;93688.94;;;14.14;58.81
15444;BME280;7822;48.146;11.576;2023-03-07T10:16:10;93678.69;;;14.13;59.02
15444;BME280;7822;48.146;11.576;2023-03-07T10:18:51;93677.88;;;14.12;58.98
15444;BME280;7822;48.146;11.576;2023-03-07T10:21:27;93668.25;;;14.13;59.23
15444;BME280;7822;48.146;11.576;2023-03-07T10:27:13;93667.44;;;14.12;58.87
15444;BME280;7822;48.146;11.576;2023-03-07T10:29:45;93663.03;;;14.13;58.91
15444;BME280;7822;48.146;11.576;2023-03-07T10:32:19;93663.66;;;14.15;59.11
15444;BME280;7822;48.146;11.576;2023-03-07T10:34:52;93644.78;;;14.13;59.11
15444;BME280;7822;48.146;11.576;2023-03-07T10:37:26;93648.22;;;14.13;58.94
15444;BME280;7822;48.146;11.576;2023-03-07T10:39:58;93633.53;;;14.12;59.07
15444;BME280;7822;48.146;11.576;2023-03-07T10:42:34;93633.53;;;14.12;59.31
15444;BME280;7822;48.146;11.576;2023-03-07T10:45:06;93637.78;;;14.13;59.18
15444;BME280;7822;48.146;11.576;2023-03-07T10:47:33;93630.16;;;14.12;59.06
15444;BME280;7822;48.146;11.576;2023-03-07T10:50:13;93631.75;;;14.13;59.13
15444;BME280;7822;48.146;11.576;2023-03-07T10:52:46;93627.34;;;14.13;59.14
15444;BME280;7822;48.146;11.576;2023-03-07T10:55:37;93618.72;;;14.13;58.94
15444;BME280;7822;48.146;11.576;2023-03-07T10:58:17;93615.28;;;14.12;59.14
15444;BME280;7822;48.146;11.576;2023-03-07T11:00:57;93608.47;;;14.11;58.98
15444;BME280;7822;48.146;11.576;2023-03-07T11:03:30;93607.47;;;14.12;59.23
15444;BME280;7822;48.146;11.576;2023-03-07T11:06:40;93607.47;;;14.12;58.79
15444;BME280;7822;48.146;11.576;2023-03-07T11:09:21;93597.03;;;14.12;59.21
15444;BME280;7822;48.146;11.576;2023-03-07T11:11:55;93585.63;;;14.13;59.22
15444;BME280;7822;48.146;11.576;2023-03-07T11:14:24;93588.22;;;14.13;59.23
15444;BME280;7822;48.146;11.576;2023-03-07T11:16:54;93587.41;;;14.13;58.97
15444;BME280;7822;48.146;11.576;2023-03-07T11:19:34;93577.00;;;14.13;59.03
15444;BME280;7822;48.146;11.576;2023-03-07T11:22:10;93566.56;;;14.13;59.12
15444;BME280;7822;48.146;11.576;2023-03-07T11:24:48;93569.16;;;14.13;58.88
15444;BME280;7822;48.146;11.576;2023-03-07T11:27:25;93561.34;;;14.13;59.17
15444;BME280;7822;48.146;11.576;2023-03-07T11:30:14;93564.75;;;14.13;59.22
15444;BME280;7822;48.146;11.576;2023-03-07T11:32:48;93557.75;;;14.14;59.38
15444;BME280;7822;48.146;11.576;2023-03-07T11:35:20;93558.72;;;14.13;59.13
15444;BME280;7822;48.146;11.576;2023-03-07T11:37:57;93551.72;;;14.13;59.22
15444;BME280;7822;48.146;11.576;2023-03-07T11:40:30;93554.34;;;14.13;59.20
15444;BME280;7822;48.146;11.576;2023-03-07T11:43:08;93561.16;;;14.14;59.02
15444;BME280;7822;48.146;11.576;2023-03-07T11:45:49;93547.31;;;14.14;59.09
15444;BME280;7822;48.146;11.576;2023-03-07T11:48:32;93545.50;;;14.14;59.05
15444;BME280;7822;48.146;11.576;2023-03-07T11:51:04;93546.31;;;14.15;58.98
15444;BME280;7822;48.146;11.576;2023-03-07T11:53:51;93540.28;;;14.14;59.06
15444;BME280;7822;48.146;11.576;2023-03-07T11:56:25;93538.50;;;14.15;59.01
15444;BME280;7822;48.146;11.576;2023-03-07T11:59:29;93524.47;;;14.16;59.06
15444;BME280;7822;48.146;11.576;2023-03-07T12:02:21;93514.22;;;14.14;59.13
15444;BME280;7822;48.146;11.576;2023-03-07T12:05:18;93522.84;;;14.15;59.01
15444;BME280;7822;48.146;11.576;2023-03-07T12:07:58;93514.03;;;14.16;59.32
15444;BME280;7822;48.146;11.576;2023-03-07T12:10:39;93508.00;;;14.16;58.91
15444;BME280;7822;48.146;11.576;2023-03-07T12:13:17;93508.00;;;14.16;58.94
15444;BME280;7822;48.146;11.576;2023-03-07T12:15:56;93500.00;;;14.17;58.93
15444;BME280;7822;48.146;11.576;2023-03-07T12:18:48;93490.38;;;14.18;59.09
15444;BME280;7822;48.146;11.576;2023-03-07T12:21:35;93490.38;;;14.18;59.20
15444;BME280;7822;48.146;11.576;2023-03-07T12:24:13;93485.16;;;14.18;59.11
15444;BME280;7822;48.146;11.576;2023-03-07T12:26:49;93479.13;;;14.17;59.15
15444;BME280;7822;48.146;11.576;2023-03-07T12:29:25;93480.75;;;14.18;59.18
15444;BME280;7822;48.146;11.576;2023-03-07T12:32:02;93470.31;;;14.18;59.11
15444;BME280;7822;48.146;11.576;2023-03-07T12:34:35;93475.53;;;14.18;58.99
15444;BME280;7822;48.146;11.576;2023-03-07T12:37:07;93472.94;;;14.18;58.85
15444;BME280;7822;48.146;11.576;2023-03-07T12:39:44;93475.53;;;14.18;59.21
15444;BME280;7822;48.146;11.576;2023-03-07T12:42:16;93484.97;;;14.19;59.26
15444;BME280;7822;48.146;11.576;2023-03-07T12:44:49;93473.75;;;14.19;59.13
15444;BME280;7822;48.146;11.576;2023-03-07T12:47:24;93477.13;;;14.19;59.46
15444;BME280;7822;48.146;11.576;2023-03-07T12:49:58;93475.34;;;14.20;59.03
15444;BME280;7822;48.146;11.576;2023-03-07T12:52:35;93461.50;;;14.19;58.75
15444;BME280;7822;48.146;11.576;2023-03-07T12:55:15;93461.50;;;14.19;58.82
15444;BME280;7822;48.146;11.576;2023-03-07T12:57:48;93464.91;;;14.20;58.96
15444;BME280;7822;48.146;11.576;2023-03-07T13:00:20;93461.31;;;14.21;59.09
15444;BME280;7822;48.146;11.576;2023-03-07T13:02:56;93463.94;;;14.21;59.02
15444;BME280;7822;48.146;11.576;2023-03-07T13:05:26;93479.59;;;14.21;58.78
15444;BME280;7822;48.146;11.576;2023-03-07T13:07:54;93467.31;;;14.21;58.99
15444;BME280;7822;48.146;11.576;2023-03-07T13:10:23;93462.09;;;14.21;58.99
15444;BME280;7822;48.146;11.576;2023-03-07T13:12:52;93460.31;;;14.22;59.04
15444;BME280;7822;48.146;11.576;2023-03-07T13:15:51;93459.50;;;14.21;59.39
15444;BME280;7822;48.146;11.576;2023-03-07T13:18:30;93456.72;;;14.23;59.54
15444;BME280;7822;48.146;11.576;2023-03-07T13:21:12;93454.13;;;14.23;59.21
15444;BME280;7822;48.146;11.576;2023-03-07T13:23:40;93455.91;;;14.22;59.40
15444;BME280;7822;48.146;11.576;2023-03-07T13:26:12;93450.69;;;14.22;58.86
15444;BME280;7822;48.146;11.576;2023-03-07T13:28:45;93454.28;;;14.21;59.03
15444;BME280;7822;48.146;11.576;2023-03-07T13:31:38;93455.91;;;14.22;59.26
15444;BME280;7822;48.146;11.576;2023-03-07T13:34:44;93449.06;;;14.21;59.46
15444;BME280;7822;48.146;11.576;2023-03-07T13:37:48;93440.25;;;14.22;59.00
15444;BME280;7822;48.146;11.576;2023-03-07T13:46:50;93420.22;;;14.23;59.08
15444;BME280;7822;48.146;11.576;2023-03-07T13:49:35;93414.19;;;14.22;58.84
15444;BME280;7822;48.146;11.576;2023-03-07T13:52:23;93415.16;;;14.21;59.04
15444;BME280;7822;48.146;11.576;2023-03-07T13:54:55;93412.56;;;14.21;59.26
15444;BME280;7822;48.146;11.576;2023-03-07T13:57:30;93415.16;;;14.21;59.31
15444;BME280;7822;48.146;11.576;2023-03-07T14:00:00;93415.16;;;14.21;59.23
15444;BME280;7822;48.146;11.576;2023-03-07T14:02:28;93415.16;;;14.21;59.10
15444;BME280;7822;48.146;11.576;2023-03-07T14:04:59;93408.97;;;14.22;59.21
15444;BME280;7822;48.146;11.576;2023-03-07T14:07:32;93407.19;;;14.23;59.10
15444;BME280;7822;48.146;11.576;2023-03-07T14:10:07;93406.56;;;14.21;59.10
15444;BME280;7822;48.146;11.576;2023-03-07T14:13:11;93404.56;;;14.23;59.01
15444;BME280;7822;48.146;11.576;2023-03-07T14:18:46;93392.50;;;14.22;59.09
15444;BME280;7822;48.146;11.576;2023-03-07T14:21:25;93399.34;;;14.23;59.14
15444;BME280;7822;48.146;11.576;2023-03-07T14:24:09;93401.16;;;14.22;58.66
15444;BME280;7822;48.146;11.576;2023-03-07T14:26:42;93401.16;;;14.22;59.19
15444;BME280;7822;48.146;11.576;2023-03-07T14:29:16;93401.97;;;14.23;59.38
15444;BME280;7822;48.146;11.576;2023-03-07T14:31:45;93399.34;;;14.23;59.09
15444;BME280;7822;48.146;11.576;2023-03-07T14:34:26;93394.13;;;14.23;59.09
15444;BME280;7822;48.146;11.576;2023-03-07T14:36:56;93387.09;;;14.23;58.86